createdAt,value
2023-05-09T00:04:20.362Z,99519.74
2023-05-09T00:09:42.508Z,99518.19
2023-05-09T00:15:04.513Z,99519.00
2023-05-09T00:20:26.587Z,99516.04
2023-05-09T00:25:48.554Z,99509.99
2023-05-09T00:31:10.110Z,99506.72
2023-05-09T00:36:32.842Z,99501.91
2023-05-09T00:41:56.213Z,99500.88
2023-05-09T00:47:18.332Z,99492.70
2023-05-09T00:52:40.313Z,99488.43
2023-05-09T00:58:03.447Z,99483.80
2023-05-09T01:03:25.494Z,99482.45
2023-05-09T01:09:04.452Z,99478.61
2023-05-09T01:15:00.073Z,99478.77
2023-05-09T01:20:31.308Z,99476.64
2023-05-09T01:26:11.010Z,99469.59
2023-05-09T01:31:34.873Z,99467.61
2023-05-09T01:36:59.349Z,99468.48
2023-05-09T01:42:21.531Z,99466.59
2023-05-09T01:47:44.003Z,99465.47
2023-05-09T01:53:06.719Z,99462.20
2023-05-09T01:58:28.947Z,99459.23
2023-05-09T02:03:52.749Z,99458.77
2023-05-09T02:09:14.703Z,99456.77
2023-05-09T02:14:37.812Z,99450.22
2023-05-09T02:19:59.713Z,99454.06
2023-05-09T02:25:21.340Z,99452.52
2023-05-09T02:30:44.645Z,99445.85
2023-05-09T02:36:08.640Z,99442.35
2023-05-09T02:41:31.043Z,99440.23
2023-05-09T02:46:52.547Z,99437.13
2023-05-09T02:52:14.748Z,99436.26
2023-05-09T02:57:36.917Z,99437.16
2023-05-09T03:03:00.231Z,99443.17
2023-05-09T03:08:22.100Z,99443.72
2023-05-09T03:13:43.822Z,99438.21
2023-05-09T03:19:05.833Z,99435.55
2023-05-09T03:24:28.385Z,99437.08
2023-05-09T03:29:50.294Z,99436.42
2023-05-09T03:35:15.283Z,99435.56
2023-05-09T03:40:37.920Z,99435.57
2023-05-09T03:46:02.666Z,99433.25
2023-05-09T03:51:24.832Z,99434.36
2023-05-09T03:56:47.480Z,99437.00
2023-05-09T04:02:09.123Z,99437.80
2023-05-09T04:07:31.843Z,99437.70
2023-05-09T04:12:53.907Z,99442.48
2023-05-09T04:18:15.715Z,99442.02
2023-05-09T04:23:38.918Z,99443.30
2023-05-09T04:29:01.939Z,99446.91
2023-05-09T04:34:23.808Z,99442.27
2023-05-09T04:39:45.967Z,99435.91
2023-05-09T04:45:16.662Z,99434.49
2023-05-09T04:50:41.702Z,99429.52
2023-05-09T04:56:03.286Z,99415.65
2023-05-09T05:01:26.806Z,99422.27
2023-05-09T05:06:49.765Z,99425.45
2023-05-09T05:12:15.296Z,99421.88
2023-05-09T05:17:37.458Z,99422.27
2023-05-09T05:23:00.171Z,99425.36
2023-05-09T05:28:23.630Z,99425.11
2023-05-09T05:33:46.016Z,99419.73
2023-05-09T05:39:08.111Z,99418.98
2023-05-09T05:44:30.951Z,99411.72
2023-05-09T05:49:56.125Z,99403.54
2023-05-09T05:55:18.167Z,99400.75
2023-05-09T06:00:40.141Z,99399.77
2023-05-09T06:06:04.631Z,99394.90
2023-05-09T06:11:27.800Z,99392.52
2023-05-09T06:16:50.050Z,99395.57
2023-05-09T06:22:12.401Z,99394.02
2023-05-09T06:27:34.353Z,99387.97
2023-05-09T06:32:59.107Z,99386.92
2023-05-09T06:38:21.091Z,99378.61
2023-05-09T06:43:43.198Z,99373.31
2023-05-09T06:49:06.595Z,99363.20
2023-05-09T06:54:28.659Z,99354.72
2023-05-09T06:59:53.704Z,99351.65
2023-05-09T07:05:20.155Z,99337.52
2023-05-09T07:10:44.653Z,99335.40
2023-05-09T07:16:06.680Z,99337.42
2023-05-09T07:21:31.458Z,99336.69
2023-05-09T07:26:53.839Z,99326.64
2023-05-09T07:32:15.691Z,99332.38
2023-05-09T07:37:37.429Z,99319.59
2023-05-09T07:42:59.415Z,99312.98
2023-05-09T07:48:21.350Z,99314.79
2023-05-09T07:53:43.393Z,99319.84
2023-05-09T07:59:05.404Z,99308.05
2023-05-09T08:04:33.625Z,99308.08
2023-05-09T08:09:55.873Z,99303.56
2023-05-09T08:15:18.304Z,99297.38
2023-05-09T08:20:41.048Z,99299.68
2023-05-09T08:26:02.979Z,99297.37
2023-05-09T08:31:24.698Z,99285.98
2023-05-09T08:36:49.814Z,99284.19
2023-05-09T08:42:12.740Z,99283.83
2023-05-09T08:47:36.292Z,99273.36
2023-05-09T08:52:58.393Z,99264.13
2023-05-09T08:58:22.884Z,99262.38
2023-05-09T09:03:47.844Z,99268.58
2023-05-09T09:09:09.828Z,99264.48
2023-05-09T09:14:32.247Z,99266.70
2023-05-09T09:20:02.300Z,99272.92
2023-05-09T09:25:24.431Z,99269.52
2023-05-09T09:30:49.191Z,99264.45
2023-05-09T09:36:11.209Z,99261.89
2023-05-09T09:41:38.132Z,99263.13
2023-05-09T09:47:01.183Z,99254.77
2023-05-09T09:52:27.065Z,99248.89
2023-05-09T09:57:49.766Z,99241.36
2023-05-09T10:03:16.341Z,99248.14
2023-05-09T10:08:38.334Z,99242.24
2023-05-09T10:13:59.763Z,99235.84
2023-05-09T10:19:22.593Z,99237.23
2023-05-09T10:25:03.544Z,99230.35
2023-05-09T10:30:30.227Z,99229.82
2023-05-09T10:35:52.265Z,99222.66
2023-05-09T10:41:15.538Z,99220.21
2023-05-09T10:46:37.775Z,99206.95
2023-05-09T10:51:59.574Z,99202.67
2023-05-09T10:57:21.587Z,99205.64
2023-05-09T11:03:06.893Z,99188.99
2023-05-09T11:08:30.737Z,99185.26
2023-05-09T11:13:57.381Z,99178.31
2023-05-09T11:19:38.507Z,99177.13
2023-05-09T11:25:06.048Z,99169.41
2023-05-09T11:30:43.935Z,99163.33
2023-05-09T11:36:20.212Z,99153.96
2023-05-09T11:41:48.464Z,99142.13
2023-05-09T11:47:10.871Z,99131.35
2023-05-09T11:52:33.914Z,99115.70
2023-05-09T11:57:56.350Z,99122.55
2023-05-09T12:03:18.208Z,99113.93
2023-05-09T12:08:40.299Z,99116.45
2023-05-09T12:14:01.997Z,99107.52
2023-05-09T12:19:25.456Z,99102.80
2023-05-09T12:24:47.345Z,99097.88
2023-05-09T12:30:11.044Z,99089.61
2023-05-09T12:35:33.045Z,99087.32
2023-05-09T12:41:03.881Z,99083.74
2023-05-09T12:46:26.073Z,99071.89
2023-05-09T12:51:51.897Z,99067.02
2023-05-09T12:57:24.458Z,99066.54
2023-05-09T13:02:46.593Z,99059.12
2023-05-09T13:08:08.407Z,99046.46
2023-05-09T13:13:30.837Z,99042.92
2023-05-09T13:18:52.391Z,99039.36
2023-05-09T13:24:14.000Z,99038.88
2023-05-09T13:29:35.535Z,99032.61
2023-05-09T13:34:57.254Z,99033.76
2023-05-09T13:40:19.380Z,99020.00
2023-05-09T13:45:41.211Z,99022.67
2023-05-09T13:51:03.822Z,99013.75
2023-05-09T13:56:26.481Z,99008.31
2023-05-09T14:01:48.141Z,99006.21
2023-05-09T14:07:12.755Z,98993.83
2023-05-09T14:12:36.679Z,98983.52
2023-05-09T14:18:00.151Z,98974.89
2023-05-09T14:23:22.554Z,98972.61
2023-05-09T14:28:45.084Z,98967.60
2023-05-09T14:34:06.706Z,98967.10
2023-05-09T14:39:29.049Z,98965.83
2023-05-09T14:44:50.488Z,98963.61
2023-05-09T14:50:16.055Z,98957.15
2023-05-09T14:55:38.132Z,98946.67
2023-05-09T15:01:00.338Z,98942.23
2023-05-09T15:06:23.545Z,98932.27
2023-05-09T15:11:48.732Z,98927.17
2023-05-09T15:17:11.206Z,98916.98
2023-05-09T15:22:34.076Z,98907.93
2023-05-09T15:27:56.838Z,98901.72
2023-05-09T15:33:18.872Z,98896.80
2023-05-09T15:38:40.745Z,98895.12
2023-05-09T15:44:05.529Z,98884.44
2023-05-09T15:49:27.292Z,98887.53
2023-05-09T15:54:49.289Z,98887.60
2023-05-09T16:00:16.514Z,98889.53
2023-05-09T16:05:41.087Z,98879.75
2023-05-09T16:11:04.757Z,98867.48
2023-05-09T16:16:27.096Z,98861.42
2023-05-09T16:21:48.799Z,98855.27
2023-05-09T16:27:10.911Z,98852.98
2023-05-09T16:32:32.691Z,98851.44
2023-05-09T16:37:55.954Z,98846.95
2023-05-09T16:43:20.205Z,98846.30
2023-05-09T16:49:43.349Z,98839.38
2023-05-09T16:55:06.204Z,98829.86
2023-05-09T17:00:51.938Z,98820.43
2023-05-09T17:06:13.838Z,98819.30
2023-05-09T17:11:35.614Z,98813.65
2023-05-09T17:16:57.651Z,98812.32
2023-05-09T17:22:19.734Z,98808.91
2023-05-09T17:28:50.287Z,98810.86
2023-05-09T17:35:51.463Z,98805.02
2023-05-09T17:41:53.664Z,98807.60
2023-05-09T17:47:15.389Z,98811.23
2023-05-09T17:52:37.528Z,98812.79
2023-05-09T17:57:59.536Z,98811.40
2023-05-09T18:03:21.356Z,98808.11
2023-05-09T18:08:44.718Z,98806.19
2023-05-09T18:14:48.196Z,98804.79
2023-05-09T18:21:02.785Z,98803.02
2023-05-09T18:33:39.276Z,98796.71
2023-05-09T18:39:01.867Z,98800.95
2023-05-09T18:44:24.033Z,98804.90
2023-05-09T18:49:48.144Z,98810.20
2023-05-09T18:55:10.464Z,98812.92
2023-05-09T19:00:32.650Z,98805.09
2023-05-09T19:05:55.616Z,98807.66
2023-05-09T19:11:17.663Z,98810.70
2023-05-09T19:16:41.265Z,98806.34
2023-05-09T19:27:50.736Z,98807.95
2023-05-09T20:02:15.698Z,98799.94
2023-05-09T20:07:37.725Z,98795.91
2023-05-09T20:13:01.039Z,98794.42
2023-05-09T20:18:23.082Z,98793.00
2023-05-09T20:23:47.518Z,98786.91
2023-05-09T20:29:13.833Z,98786.34
2023-05-09T20:35:32.220Z,98783.51
2023-05-09T20:41:14.191Z,98786.89
2023-05-09T20:46:38.670Z,98787.33
2023-05-09T20:52:00.382Z,98783.31
2023-05-09T20:57:22.234Z,98781.52
2023-05-09T21:02:44.187Z,98780.94
2023-05-09T21:08:06.658Z,98781.44
2023-05-09T21:13:28.975Z,98773.02
2023-05-09T21:24:27.058Z,98767.60
2023-05-09T21:29:49.864Z,98763.23
2023-05-09T21:35:13.264Z,98761.81
2023-05-09T21:40:35.372Z,98764.54
2023-05-09T21:45:57.477Z,98765.00
2023-05-09T21:51:22.262Z,98764.27
2023-05-09T21:56:44.131Z,98763.88
2023-05-09T22:02:06.211Z,98765.21
2023-05-09T22:07:28.306Z,98761.70
2023-05-09T22:12:50.681Z,98764.58
2023-05-09T22:18:12.467Z,98762.64
2023-05-09T22:23:36.502Z,98758.42
2023-05-09T22:29:01.130Z,98757.16
2023-05-09T22:34:23.010Z,98753.09
2023-05-09T22:39:44.993Z,98749.92
2023-05-09T22:45:09.563Z,98744.83
2023-05-09T22:50:31.454Z,98746.10
2023-05-09T22:55:54.832Z,98747.02
2023-05-09T23:01:16.481Z,98745.38
2023-05-09T23:06:38.233Z,98745.13
2023-05-09T23:12:02.799Z,98745.66
2023-05-09T23:17:24.549Z,98739.48
2023-05-09T23:22:46.355Z,98736.05
2023-05-09T23:28:08.259Z,98732.66
2023-05-09T23:33:30.142Z,98731.48
2023-05-09T23:38:51.569Z,98732.69
2023-05-09T23:44:13.006Z,98728.43
2023-05-09T23:49:34.403Z,98720.50
2023-05-09T23:54:56.683Z,98722.72
